sensor_id;sensor_type;location;lat;lon;timestamp;P1;durP1;ratioP1;P2;durP2;ratioP2
66741;SDS011;53654;54.152;19.432;2023-06-22T00:01:29;27.10;;;25.00;;
66741;SDS011;53654;54.152;19.432;2023-06-22T00:03:57;28.50;;;26.30;;
66741;SDS011;53654;54.152;19.432;2023-06-22T00:06:25;26.20;;;24.20;;
66741;SDS011;53654;54.152;19.432;2023-06-22T00:08:54;30.10;;;27.70;;
66741;SDS011;53654;54.152;19.432;2023-06-22T00:11:22;31.80;;;29.20;;
66741;SDS011;53654;54.152;19.432;2023-06-22T00:13:51;31.00;;;28.60;;
66741;SDS011;53654;54.152;19.432;2023-06-22T00:16:19;31.50;;;29.20;;
66741;SDS011;53654;54.152;19.432;2023-06-22T00:18:47;30.30;;;27.90;;
66741;SDS011;53654;54.152;19.432;2023-06-22T00:21:16;27.00;;;25.00;;
66741;SDS011;53654;54.152;19.432;2023-06-22T00:23:44;24.70;;;23.00;;
66741;SDS011;53654;54.152;19.432;2023-06-22T00:26:13;24.30;;;22.50;;
66741;SDS011;53654;54.152;19.432;2023-06-22T00:28:41;23.10;;;21.30;;
66741;SDS011;53654;54.152;19.432;2023-06-22T00:31:09;21.20;;;19.60;;
66741;SDS011;53654;54.152;19.432;2023-06-22T00:33:38;20.60;;;19.10;;
66741;SDS011;53654;54.152;19.432;2023-06-22T00:36:06;19.80;;;18.40;;
66741;SDS011;53654;54.152;19.432;2023-06-22T00:38:40;19.20;;;17.80;;
66741;SDS011;53654;54.152;19.432;2023-06-22T00:41:09;19.10;;;17.70;;
66741;SDS011;53654;54.152;19.432;2023-06-22T00:43:37;18.80;;;17.40;;
66741;SDS011;53654;54.152;19.432;2023-06-22T00:46:05;17.80;;;16.40;;
66741;SDS011;53654;54.152;19.432;2023-06-22T00:48:33;17.40;;;16.10;;
66741;SDS011;53654;54.152;19.432;2023-06-22T00:51:01;17.40;;;16.10;;
66741;SDS011;53654;54.152;19.432;2023-06-22T00:53:30;16.80;;;15.60;;
66741;SDS011;53654;54.152;19.432;2023-06-22T00:56:03;16.40;;;15.10;;
66741;SDS011;53654;54.152;19.432;2023-06-22T00:58:36;16.40;;;15.20;;
66741;SDS011;53654;54.152;19.432;2023-06-22T01:01:04;16.60;;;15.40;;
66741;SDS011;53654;54.152;19.432;2023-06-22T01:03:33;16.00;;;14.90;;
66741;SDS011;53654;54.152;19.432;2023-06-22T01:06:07;15.30;;;14.20;;
66741;SDS011;53654;54.152;19.432;2023-06-22T01:08:41;15.40;;;14.20;;
66741;SDS011;53654;54.152;19.432;2023-06-22T01:11:25;15.80;;;14.60;;
66741;SDS011;53654;54.152;19.432;2023-06-22T01:14:06;16.70;;;15.40;;
66741;SDS011;53654;54.152;19.432;2023-06-22T01:16:41;16.40;;;15.20;;
66741;SDS011;53654;54.152;19.432;2023-06-22T01:21:54;16.30;;;15.10;;
66741;SDS011;53654;54.152;19.432;2023-06-22T01:24:30;16.20;;;14.90;;
66741;SDS011;53654;54.152;19.432;2023-06-22T01:30:00;16.40;;;15.00;;
66741;SDS011;53654;54.152;19.432;2023-06-22T01:32:34;15.90;;;14.60;;
66741;SDS011;53654;54.152;19.432;2023-06-22T01:35:06;15.60;;;14.50;;
66741;SDS011;53654;54.152;19.432;2023-06-22T01:37:36;16.10;;;14.90;;
66741;SDS011;53654;54.152;19.432;2023-06-22T01:40:06;15.70;;;14.60;;
66741;SDS011;53654;54.152;19.432;2023-06-22T01:42:36;16.60;;;15.40;;
66741;SDS011;53654;54.152;19.432;2023-06-22T01:45:07;16.40;;;15.20;;
66741;SDS011;53654;54.152;19.432;2023-06-22T01:47:38;16.70;;;15.40;;
66741;SDS011;53654;54.152;19.432;2023-06-22T01:50:09;17.10;;;15.70;;
66741;SDS011;53654;54.152;19.432;2023-06-22T01:52:38;17.20;;;15.90;;
66741;SDS011;53654;54.152;19.432;2023-06-22T01:55:06;17.10;;;15.80;;
66741;SDS011;53654;54.152;19.432;2023-06-22T01:57:35;17.10;;;15.80;;
66741;SDS011;53654;54.152;19.432;2023-06-22T02:00:07;17.20;;;15.90;;
66741;SDS011;53654;54.152;19.432;2023-06-22T02:02:48;17.50;;;16.10;;
66741;SDS011;53654;54.152;19.432;2023-06-22T02:05:34;16.90;;;15.60;;
66741;SDS011;53654;54.152;19.432;2023-06-22T02:08:11;17.50;;;16.10;;
66741;SDS011;53654;54.152;19.432;2023-06-22T02:10:45;17.80;;;16.50;;
66741;SDS011;53654;54.152;19.432;2023-06-22T02:13:16;17.60;;;16.30;;
66741;SDS011;53654;54.152;19.432;2023-06-22T02:15:45;18.00;;;16.50;;
66741;SDS011;53654;54.152;19.432;2023-06-22T02:18:15;18.70;;;17.30;;
66741;SDS011;53654;54.152;19.432;2023-06-22T02:20:43;18.10;;;16.80;;
66741;SDS011;53654;54.152;19.432;2023-06-22T02:23:11;18.80;;;17.20;;
66741;SDS011;53654;54.152;19.432;2023-06-22T02:25:39;17.80;;;16.50;;
66741;SDS011;53654;54.152;19.432;2023-06-22T02:28:08;18.80;;;17.30;;
66741;SDS011;53654;54.152;19.432;2023-06-22T02:30:36;17.80;;;16.40;;
66741;SDS011;53654;54.152;19.432;2023-06-22T02:33:04;18.40;;;17.00;;
66741;SDS011;53654;54.152;19.432;2023-06-22T02:35:32;19.10;;;17.50;;
66741;SDS011;53654;54.152;19.432;2023-06-22T02:38:03;18.70;;;17.20;;
66741;SDS011;53654;54.152;19.432;2023-06-22T02:40:32;18.90;;;17.30;;
66741;SDS011;53654;54.152;19.432;2023-06-22T02:43:00;18.70;;;17.10;;
66741;SDS011;53654;54.152;19.432;2023-06-22T02:45:31;18.80;;;17.20;;
66741;SDS011;53654;54.152;19.432;2023-06-22T02:48:00;18.40;;;17.00;;
66741;SDS011;53654;54.152;19.432;2023-06-22T02:50:28;18.70;;;17.20;;
66741;SDS011;53654;54.152;19.432;2023-06-22T02:52:58;18.00;;;16.60;;
66741;SDS011;53654;54.152;19.432;2023-06-22T02:55:28;18.50;;;16.90;;
66741;SDS011;53654;54.152;19.432;2023-06-22T02:57:58;18.40;;;16.90;;
66741;SDS011;53654;54.152;19.432;2023-06-22T03:00:30;18.40;;;16.90;;
66741;SDS011;53654;54.152;19.432;2023-06-22T03:02:59;18.10;;;16.60;;
66741;SDS011;53654;54.152;19.432;2023-06-22T03:05:29;17.70;;;16.30;;
66741;SDS011;53654;54.152;19.432;2023-06-22T03:07:58;17.60;;;16.30;;
66741;SDS011;53654;54.152;19.432;2023-06-22T03:10:27;17.40;;;16.00;;
66741;SDS011;53654;54.152;19.432;2023-06-22T03:12:56;17.50;;;16.10;;
66741;SDS011;53654;54.152;19.432;2023-06-22T03:15:24;17.80;;;16.20;;
66741;SDS011;53654;54.152;19.432;2023-06-22T03:17:55;16.80;;;15.40;;
66741;SDS011;53654;54.152;19.432;2023-06-22T03:20:25;18.10;;;16.40;;
66741;SDS011;53654;54.152;19.432;2023-06-22T03:22:55;17.10;;;15.50;;
66741;SDS011;53654;54.152;19.432;2023-06-22T03:25:23;17.70;;;15.90;;
66741;SDS011;53654;54.152;19.432;2023-06-22T03:27:52;17.10;;;15.60;;
66741;SDS011;53654;54.152;19.432;2023-06-22T03:30:20;17.50;;;16.00;;
66741;SDS011;53654;54.152;19.432;2023-06-22T03:32:49;16.80;;;15.50;;
66741;SDS011;53654;54.152;19.432;2023-06-22T03:35:17;16.50;;;15.10;;
66741;SDS011;53654;54.152;19.432;2023-06-22T03:37:46;16.00;;;14.60;;
66741;SDS011;53654;54.152;19.432;2023-06-22T03:40:14;15.80;;;14.40;;
66741;SDS011;53654;54.152;19.432;2023-06-22T03:42:42;15.60;;;14.30;;
66741;SDS011;53654;54.152;19.432;2023-06-22T03:45:11;14.80;;;13.60;;
66741;SDS011;53654;54.152;19.432;2023-06-22T03:47:39;14.60;;;13.40;;
66741;SDS011;53654;54.152;19.432;2023-06-22T03:50:07;14.20;;;13.00;;
66741;SDS011;53654;54.152;19.432;2023-06-22T03:52:36;13.40;;;12.20;;
66741;SDS011;53654;54.152;19.432;2023-06-22T03:55:05;12.60;;;11.50;;
66741;SDS011;53654;54.152;19.432;2023-06-22T03:57:34;12.10;;;11.00;;
66741;SDS011;53654;54.152;19.432;2023-06-22T04:00:02;12.40;;;11.10;;
66741;SDS011;53654;54.152;19.432;2023-06-22T04:02:42;11.90;;;10.60;;
66741;SDS011;53654;54.152;19.432;2023-06-22T04:05:10;10.90;;;9.90;;
66741;SDS011;53654;54.152;19.432;2023-06-22T04:07:38;10.90;;;9.80;;
66741;SDS011;53654;54.152;19.432;2023-06-22T04:10:07;11.20;;;10.00;;
66741;SDS011;53654;54.152;19.432;2023-06-22T04:12:39;10.90;;;9.90;;
66741;SDS011;53654;54.152;19.432;2023-06-22T04:15:08;10.70;;;9.70;;
66741;SDS011;53654;54.152;19.432;2023-06-22T04:17:36;10.80;;;9.70;;
66741;SDS011;53654;54.152;19.432;2023-06-22T04:20:05;10.60;;;9.70;;
66741;SDS011;53654;54.152;19.432;2023-06-22T04:22:34;11.10;;;10.10;;
66741;SDS011;53654;54.152;19.432;2023-06-22T04:25:02;11.90;;;10.80;;
66741;SDS011;53654;54.152;19.432;2023-06-22T04:27:31;11.60;;;10.50;;
66741;SDS011;53654;54.152;19.432;2023-06-22T04:30:00;11.90;;;10.80;;
66741;SDS011;53654;54.152;19.432;2023-06-22T04:32:28;13.00;;;11.20;;
66741;SDS011;53654;54.152;19.432;2023-06-22T04:34:56;12.60;;;11.50;;
66741;SDS011;53654;54.152;19.432;2023-06-22T04:37:24;12.30;;;11.20;;
66741;SDS011;53654;54.152;19.432;2023-06-22T04:39:52;12.40;;;11.20;;
66741;SDS011;53654;54.152;19.432;2023-06-22T04:42:20;12.60;;;11.40;;
66741;SDS011;53654;54.152;19.432;2023-06-22T04:44:49;12.00;;;10.90;;
66741;SDS011;53654;54.152;19.432;2023-06-22T04:47:17;12.90;;;11.60;;
66741;SDS011;53654;54.152;19.432;2023-06-22T04:49:46;12.60;;;11.40;;
66741;SDS011;53654;54.152;19.432;2023-06-22T04:52:15;13.40;;;12.20;;
66741;SDS011;53654;54.152;19.432;2023-06-22T04:54:45;13.00;;;11.70;;
66741;SDS011;53654;54.152;19.432;2023-06-22T04:57:23;13.60;;;12.40;;
66741;SDS011;53654;54.152;19.432;2023-06-22T04:59:58;13.10;;;12.00;;
66741;SDS011;53654;54.152;19.432;2023-06-22T05:02:39;13.70;;;12.30;;
66741;SDS011;53654;54.152;19.432;2023-06-22T05:05:08;13.60;;;12.20;;
66741;SDS011;53654;54.152;19.432;2023-06-22T05:07:44;13.50;;;12.20;;
66741;SDS011;53654;54.152;19.432;2023-06-22T05:10:15;13.40;;;12.00;;
66741;SDS011;53654;54.152;19.432;2023-06-22T05:12:44;12.70;;;11.50;;
66741;SDS011;53654;54.152;19.432;2023-06-22T05:15:14;13.90;;;12.50;;
66741;SDS011;53654;54.152;19.432;2023-06-22T05:17:43;14.60;;;12.30;;
66741;SDS011;53654;54.152;19.432;2023-06-22T05:20:13;13.90;;;12.50;;
66741;SDS011;53654;54.152;19.432;2023-06-22T05:22:41;13.30;;;12.00;;
66741;SDS011;53654;54.152;19.432;2023-06-22T05:25:11;14.40;;;12.90;;
66741;SDS011;53654;54.152;19.432;2023-06-22T05:27:39;13.30;;;12.00;;
66741;SDS011;53654;54.152;19.432;2023-06-22T05:30:08;13.10;;;11.90;;
66741;SDS011;53654;54.152;19.432;2023-06-22T05:32:37;13.00;;;11.80;;
66741;SDS011;53654;54.152;19.432;2023-06-22T05:35:05;12.80;;;11.60;;
66741;SDS011;53654;54.152;19.432;2023-06-22T05:37:34;14.00;;;12.40;;
66741;SDS011;53654;54.152;19.432;2023-06-22T05:40:02;12.20;;;11.10;;
66741;SDS011;53654;54.152;19.432;2023-06-22T05:42:31;12.00;;;10.90;;
66741;SDS011;53654;54.152;19.432;2023-06-22T05:44:59;11.90;;;10.80;;
66741;SDS011;53654;54.152;19.432;2023-06-22T05:47:27;11.70;;;10.60;;
66741;SDS011;53654;54.152;19.432;2023-06-22T05:49:56;11.80;;;10.70;;
66741;SDS011;53654;54.152;19.432;2023-06-22T05:52:24;11.60;;;10.40;;
66741;SDS011;53654;54.152;19.432;2023-06-22T05:54:52;11.20;;;10.20;;
66741;SDS011;53654;54.152;19.432;2023-06-22T05:57:20;11.10;;;10.10;;
66741;SDS011;53654;54.152;19.432;2023-06-22T05:59:49;11.90;;;10.30;;
66741;SDS011;53654;54.152;19.432;2023-06-22T06:02:17;10.60;;;9.50;;
66741;SDS011;53654;54.152;19.432;2023-06-22T06:04:46;11.10;;;10.00;;
66741;SDS011;53654;54.152;19.432;2023-06-22T06:07:14;11.80;;;10.60;;
66741;SDS011;53654;54.152;19.432;2023-06-22T06:09:42;11.60;;;10.40;;
66741;SDS011;53654;54.152;19.432;2023-06-22T06:12:10;10.90;;;9.80;;
66741;SDS011;53654;54.152;19.432;2023-06-22T06:14:39;9.80;;;8.90;;
66741;SDS011;53654;54.152;19.432;2023-06-22T06:17:07;11.50;;;9.60;;
66741;SDS011;53654;54.152;19.432;2023-06-22T06:19:35;10.10;;;9.10;;
66741;SDS011;53654;54.152;19.432;2023-06-22T06:22:03;10.70;;;9.50;;
66741;SDS011;53654;54.152;19.432;2023-06-22T06:24:31;10.50;;;9.40;;
66741;SDS011;53654;54.152;19.432;2023-06-22T06:26:59;10.20;;;9.20;;
66741;SDS011;53654;54.152;19.432;2023-06-22T06:29:28;10.60;;;9.60;;
66741;SDS011;53654;54.152;19.432;2023-06-22T06:31:56;9.70;;;8.80;;
66741;SDS011;53654;54.152;19.432;2023-06-22T06:34:24;10.00;;;9.00;;
66741;SDS011;53654;54.152;19.432;2023-06-22T06:36:53;9.20;;;8.50;;
66741;SDS011;53654;54.152;19.432;2023-06-22T06:39:21;9.60;;;8.70;;
66741;SDS011;53654;54.152;19.432;2023-06-22T06:41:49;9.00;;;8.20;;
66741;SDS011;53654;54.152;19.432;2023-06-22T06:44:17;9.60;;;8.30;;
66741;SDS011;53654;54.152;19.432;2023-06-22T06:46:46;8.50;;;7.70;;
66741;SDS011;53654;54.152;19.432;2023-06-22T06:49:14;8.60;;;7.80;;
66741;SDS011;53654;54.152;19.432;2023-06-22T06:51:42;8.90;;;8.00;;
66741;SDS011;53654;54.152;19.432;2023-06-22T06:54:10;8.50;;;7.70;;
66741;SDS011;53654;54.152;19.432;2023-06-22T06:56:38;8.70;;;7.70;;
66741;SDS011;53654;54.152;19.432;2023-06-22T06:59:06;9.60;;;8.70;;
66741;SDS011;53654;54.152;19.432;2023-06-22T07:01:34;9.30;;;8.50;;
66741;SDS011;53654;54.152;19.432;2023-06-22T07:04:03;8.30;;;7.60;;
66741;SDS011;53654;54.152;19.432;2023-06-22T07:06:32;8.50;;;7.60;;
66741;SDS011;53654;54.152;19.432;2023-06-22T07:09:01;8.90;;;8.00;;
66741;SDS011;53654;54.152;19.432;2023-06-22T07:11:31;9.60;;;8.70;;
66741;SDS011;53654;54.152;19.432;2023-06-22T07:13:59;8.00;;;7.20;;
66741;SDS011;53654;54.152;19.432;2023-06-22T07:16:29;7.20;;;6.50;;
66741;SDS011;53654;54.152;19.432;2023-06-22T07:18:59;6.90;;;6.20;;
66741;SDS011;53654;54.152;19.432;2023-06-22T07:21:28;6.80;;;6.20;;
66741;SDS011;53654;54.152;19.432;2023-06-22T07:23:56;6.60;;;5.60;;
66741;SDS011;53654;54.152;19.432;2023-06-22T07:26:24;5.70;;;5.20;;
66741;SDS011;53654;54.152;19.432;2023-06-22T07:28:52;6.90;;;5.40;;
66741;SDS011;53654;54.152;19.432;2023-06-22T07:31:21;6.80;;;5.40;;
66741;SDS011;53654;54.152;19.432;2023-06-22T07:33:49;5.60;;;4.90;;
66741;SDS011;53654;54.152;19.432;2023-06-22T07:36:17;5.90;;;5.30;;
66741;SDS011;53654;54.152;19.432;2023-06-22T07:38:46;5.10;;;4.40;;
66741;SDS011;53654;54.152;19.432;2023-06-22T07:41:14;5.70;;;4.40;;
66741;SDS011;53654;54.152;19.432;2023-06-22T07:43:42;4.90;;;4.40;;
66741;SDS011;53654;54.152;19.432;2023-06-22T07:46:10;5.50;;;4.60;;
66741;SDS011;53654;54.152;19.432;2023-06-22T07:48:39;5.30;;;4.50;;
66741;SDS011;53654;54.152;19.432;2023-06-22T07:51:07;6.20;;;4.60;;
66741;SDS011;53654;54.152;19.432;2023-06-22T07:53:36;5.40;;;4.90;;
66741;SDS011;53654;54.152;19.432;2023-06-22T07:56:04;6.50;;;4.40;;
66741;SDS011;53654;54.152;19.432;2023-06-22T07:58:35;5.20;;;4.50;;
66741;SDS011;53654;54.152;19.432;2023-06-22T08:01:03;4.80;;;4.40;;
66741;SDS011;53654;54.152;19.432;2023-06-22T08:03:31;4.80;;;4.30;;
66741;SDS011;53654;54.152;19.432;2023-06-22T08:06:00;4.80;;;4.10;;
66741;SDS011;53654;54.152;19.432;2023-06-22T08:08:28;4.60;;;4.20;;
66741;SDS011;53654;54.152;19.432;2023-06-22T08:10:57;4.20;;;3.80;;
66741;SDS011;53654;54.152;19.432;2023-06-22T08:13:25;6.30;;;4.50;;
66741;SDS011;53654;54.152;19.432;2023-06-22T08:15:54;4.90;;;3.80;;
66741;SDS011;53654;54.152;19.432;2023-06-22T08:18:22;3.50;;;3.20;;
66741;SDS011;53654;54.152;19.432;2023-06-22T08:20:50;3.80;;;3.50;;
66741;SDS011;53654;54.152;19.432;2023-06-22T08:23:18;4.50;;;3.50;;
66741;SDS011;53654;54.152;19.432;2023-06-22T08:25:46;3.80;;;3.00;;
66741;SDS011;53654;54.152;19.432;2023-06-22T08:28:16;3.70;;;3.10;;
66741;SDS011;53654;54.152;19.432;2023-06-22T08:30:44;5.00;;;3.20;;
66741;SDS011;53654;54.152;19.432;2023-06-22T08:33:13;3.50;;;2.90;;
66741;SDS011;53654;54.152;19.432;2023-06-22T08:35:49;3.40;;;2.90;;
66741;SDS011;53654;54.152;19.432;2023-06-22T08:38:17;3.60;;;2.70;;
66741;SDS011;53654;54.152;19.432;2023-06-22T08:40:46;4.40;;;2.80;;
66741;SDS011;53654;54.152;19.432;2023-06-22T08:43:15;4.60;;;2.80;;
66741;SDS011;53654;54.152;19.432;2023-06-22T08:45:43;3.90;;;2.80;;
66741;SDS011;53654;54.152;19.432;2023-06-22T08:48:12;3.10;;;2.80;;
66741;SDS011;53654;54.152;19.432;2023-06-22T08:50:40;3.60;;;2.80;;
66741;SDS011;53654;54.152;19.432;2023-06-22T08:53:09;3.80;;;3.00;;
66741;SDS011;53654;54.152;19.432;2023-06-22T08:55:37;4.00;;;2.80;;
66741;SDS011;53654;54.152;19.432;2023-06-22T08:58:05;3.20;;;2.60;;
66741;SDS011;53654;54.152;19.432;2023-06-22T09:00:34;4.30;;;2.70;;
66741;SDS011;53654;54.152;19.432;2023-06-22T09:03:03;3.60;;;2.60;;
66741;SDS011;53654;54.152;19.432;2023-06-22T09:05:31;3.20;;;2.60;;
66741;SDS011;53654;54.152;19.432;2023-06-22T09:08:00;3.20;;;2.80;;
66741;SDS011;53654;54.152;19.432;2023-06-22T09:10:28;3.00;;;2.60;;
66741;SDS011;53654;54.152;19.432;2023-06-22T09:12:57;3.60;;;2.80;;
66741;SDS011;53654;54.152;19.432;2023-06-22T09:15:25;3.90;;;2.80;;
66741;SDS011;53654;54.152;19.432;2023-06-22T09:17:53;4.60;;;2.80;;
66741;SDS011;53654;54.152;19.432;2023-06-22T09:20:22;3.10;;;2.60;;
66741;SDS011;53654;54.152;19.432;2023-06-22T09:22:50;4.60;;;2.90;;
66741;SDS011;53654;54.152;19.432;2023-06-22T09:25:18;5.50;;;2.90;;
66741;SDS011;53654;54.152;19.432;2023-06-22T09:27:48;3.00;;;2.50;;
66741;SDS011;53654;54.152;19.432;2023-06-22T09:30:16;4.40;;;3.10;;
66741;SDS011;53654;54.152;19.432;2023-06-22T09:32:44;5.20;;;2.90;;
66741;SDS011;53654;54.152;19.432;2023-06-22T09:35:12;4.60;;;2.90;;
66741;SDS011;53654;54.152;19.432;2023-06-22T09:37:41;3.40;;;2.70;;
66741;SDS011;53654;54.152;19.432;2023-06-22T09:40:09;3.70;;;2.70;;
66741;SDS011;53654;54.152;19.432;2023-06-22T09:42:41;3.60;;;2.90;;
66741;SDS011;53654;54.152;19.432;2023-06-22T09:45:09;5.90;;;3.00;;
66741;SDS011;53654;54.152;19.432;2023-06-22T09:47:37;3.50;;;2.70;;
66741;SDS011;53654;54.152;19.432;2023-06-22T09:50:06;5.20;;;3.30;;
66741;SDS011;53654;54.152;19.432;2023-06-22T09:52:34;3.70;;;2.90;;
66741;SDS011;53654;54.152;19.432;2023-06-22T09:55:15;3.50;;;3.10;;
66741;SDS011;53654;54.152;19.432;2023-06-22T09:57:44;4.30;;;3.20;;
66741;SDS011;53654;54.152;19.432;2023-06-22T10:00:13;4.90;;;3.10;;
66741;SDS011;53654;54.152;19.432;2023-06-22T10:02:43;4.50;;;3.00;;
66741;SDS011;53654;54.152;19.432;2023-06-22T10:05:12;5.10;;;3.00;;
66741;SDS011;53654;54.152;19.432;2023-06-22T10:07:40;5.40;;;2.90;;
66741;SDS011;53654;54.152;19.432;2023-06-22T10:10:11;7.20;;;3.10;;
66741;SDS011;53654;54.152;19.432;2023-06-22T10:12:41;4.40;;;3.40;;
66741;SDS011;53654;54.152;19.432;2023-06-22T10:15:16;5.60;;;3.10;;
66741;SDS011;53654;54.152;19.432;2023-06-22T10:17:45;5.80;;;3.50;;
66741;SDS011;53654;54.152;19.432;2023-06-22T10:20:13;4.00;;;3.20;;
66741;SDS011;53654;54.152;19.432;2023-06-22T10:22:43;4.00;;;3.00;;
66741;SDS011;53654;54.152;19.432;2023-06-22T10:25:12;4.80;;;3.00;;
66741;SDS011;53654;54.152;19.432;2023-06-22T10:27:41;4.20;;;3.00;;
66741;SDS011;53654;54.152;19.432;2023-06-22T10:30:10;4.00;;;3.20;;
66741;SDS011;53654;54.152;19.432;2023-06-22T10:32:41;3.80;;;3.00;;
66741;SDS011;53654;54.152;19.432;2023-06-22T10:35:11;5.30;;;3.10;;
66741;SDS011;53654;54.152;19.432;2023-06-22T10:37:45;3.90;;;3.00;;
66741;SDS011;53654;54.152;19.432;2023-06-22T10:40:14;3.60;;;2.90;;
66741;SDS011;53654;54.152;19.432;2023-06-22T10:42:46;4.80;;;3.10;;
66741;SDS011;53654;54.152;19.432;2023-06-22T10:45:14;4.20;;;3.30;;
66741;SDS011;53654;54.152;19.432;2023-06-22T10:47:43;4.00;;;3.30;;
66741;SDS011;53654;54.152;19.432;2023-06-22T10:50:11;4.60;;;3.10;;
66741;SDS011;53654;54.152;19.432;2023-06-22T10:52:39;3.60;;;3.20;;
66741;SDS011;53654;54.152;19.432;2023-06-22T10:55:10;4.30;;;3.30;;
66741;SDS011;53654;54.152;19.432;2023-06-22T10:57:38;4.30;;;3.10;;
66741;SDS011;53654;54.152;19.432;2023-06-22T11:00:12;4.50;;;3.40;;
66741;SDS011;53654;54.152;19.432;2023-06-22T11:02:41;3.60;;;3.10;;
66741;SDS011;53654;54.152;19.432;2023-06-22T11:05:10;5.20;;;3.40;;
66741;SDS011;53654;54.152;19.432;2023-06-22T11:07:41;3.90;;;3.50;;
66741;SDS011;53654;54.152;19.432;2023-06-22T11:10:15;3.80;;;3.20;;
66741;SDS011;53654;54.152;19.432;2023-06-22T11:12:44;5.20;;;3.60;;
66741;SDS011;53654;54.152;19.432;2023-06-22T11:15:12;4.40;;;3.40;;
66741;SDS011;53654;54.152;19.432;2023-06-22T11:17:40;5.40;;;3.50;;
66741;SDS011;53654;54.152;19.432;2023-06-22T11:20:08;5.30;;;3.50;;
66741;SDS011;53654;54.152;19.432;2023-06-22T11:22:40;5.30;;;3.30;;
66741;SDS011;53654;54.152;19.432;2023-06-22T11:25:09;3.80;;;3.30;;
66741;SDS011;53654;54.152;19.432;2023-06-22T11:27:39;4.80;;;3.40;;
66741;SDS011;53654;54.152;19.432;2023-06-22T11:30:07;3.80;;;3.30;;
66741;SDS011;53654;54.152;19.432;2023-06-22T11:32:36;5.10;;;3.30;;
66741;SDS011;53654;54.152;19.432;2023-06-22T11:35:05;4.20;;;3.40;;
66741;SDS011;53654;54.152;19.432;2023-06-22T11:37:33;6.20;;;3.30;;
66741;SDS011;53654;54.152;19.432;2023-06-22T11:40:01;4.40;;;3.30;;
66741;SDS011;53654;54.152;19.432;2023-06-22T11:42:35;3.40;;;3.00;;
66741;SDS011;53654;54.152;19.432;2023-06-22T11:45:04;3.80;;;3.40;;
66741;SDS011;53654;54.152;19.432;2023-06-22T11:47:33;3.80;;;3.40;;
66741;SDS011;53654;54.152;19.432;2023-06-22T11:50:02;5.40;;;3.40;;
66741;SDS011;53654;54.152;19.432;2023-06-22T11:52:31;4.70;;;3.30;;
66741;SDS011;53654;54.152;19.432;2023-06-22T11:54:59;6.50;;;3.50;;
66741;SDS011;53654;54.152;19.432;2023-06-22T11:57:28;5.60;;;3.20;;
66741;SDS011;53654;54.152;19.432;2023-06-22T11:59:56;4.20;;;3.30;;
66741;SDS011;53654;54.152;19.432;2023-06-22T12:02:24;5.60;;;3.30;;
66741;SDS011;53654;54.152;19.432;2023-06-22T12:04:52;3.70;;;3.30;;
66741;SDS011;53654;54.152;19.432;2023-06-22T12:07:23;4.00;;;3.50;;
66741;SDS011;53654;54.152;19.432;2023-06-22T12:09:51;3.80;;;3.40;;
66741;SDS011;53654;54.152;19.432;2023-06-22T12:12:19;4.20;;;3.30;;
66741;SDS011;53654;54.152;19.432;2023-06-22T12:14:47;3.80;;;3.30;;
66741;SDS011;53654;54.152;19.432;2023-06-22T12:17:15;6.10;;;3.50;;
66741;SDS011;53654;54.152;19.432;2023-06-22T12:19:44;7.90;;;6.50;;
66741;SDS011;53654;54.152;19.432;2023-06-22T12:22:12;8.00;;;6.90;;
66741;SDS011;53654;54.152;19.432;2023-06-22T12:24:40;8.10;;;4.10;;
66741;SDS011;53654;54.152;19.432;2023-06-22T12:27:08;4.70;;;3.40;;
66741;SDS011;53654;54.152;19.432;2023-06-22T12:29:37;7.80;;;5.50;;
66741;SDS011;53654;54.152;19.432;2023-06-22T12:32:06;7.30;;;6.20;;
66741;SDS011;53654;54.152;19.432;2023-06-22T12:34:35;5.40;;;4.70;;
66741;SDS011;53654;54.152;19.432;2023-06-22T12:37:03;7.20;;;5.00;;
66741;SDS011;53654;54.152;19.432;2023-06-22T12:39:32;5.10;;;3.30;;
66741;SDS011;53654;54.152;19.432;2023-06-22T12:42:00;6.20;;;5.50;;
66741;SDS011;53654;54.152;19.432;2023-06-22T12:44:29;4.60;;;3.50;;
66741;SDS011;53654;54.152;19.432;2023-06-22T12:46:57;5.60;;;3.40;;
66741;SDS011;53654;54.152;19.432;2023-06-22T12:49:25;4.60;;;3.40;;
66741;SDS011;53654;54.152;19.432;2023-06-22T12:51:53;3.80;;;3.40;;
66741;SDS011;53654;54.152;19.432;2023-06-22T12:54:21;4.70;;;3.60;;
66741;SDS011;53654;54.152;19.432;2023-06-22T12:56:50;4.40;;;4.00;;
66741;SDS011;53654;54.152;19.432;2023-06-22T12:59:20;4.90;;;3.60;;
66741;SDS011;53654;54.152;19.432;2023-06-22T13:01:49;4.90;;;3.40;;
66741;SDS011;53654;54.152;19.432;2023-06-22T13:04:17;3.80;;;3.20;;
66741;SDS011;53654;54.152;19.432;2023-06-22T13:06:46;5.10;;;3.30;;
66741;SDS011;53654;54.152;19.432;2023-06-22T13:09:17;4.70;;;3.30;;
66741;SDS011;53654;54.152;19.432;2023-06-22T13:11:48;5.00;;;3.20;;
66741;SDS011;53654;54.152;19.432;2023-06-22T13:14:16;4.60;;;3.30;;
66741;SDS011;53654;54.152;19.432;2023-06-22T13:16:45;5.60;;;3.40;;
66741;SDS011;53654;54.152;19.432;2023-06-22T13:19:13;4.10;;;3.20;;
66741;SDS011;53654;54.152;19.432;2023-06-22T13:21:42;4.40;;;3.10;;
66741;SDS011;53654;54.152;19.432;2023-06-22T13:24:10;3.80;;;3.40;;
66741;SDS011;53654;54.152;19.432;2023-06-22T13:26:38;4.90;;;3.30;;
66741;SDS011;53654;54.152;19.432;2023-06-22T13:29:06;4.40;;;3.10;;
66741;SDS011;53654;54.152;19.432;2023-06-22T13:31:35;3.60;;;3.10;;
66741;SDS011;53654;54.152;19.432;2023-06-22T13:34:03;4.80;;;3.40;;
66741;SDS011;53654;54.152;19.432;2023-06-22T13:36:31;4.40;;;3.60;;
66741;SDS011;53654;54.152;19.432;2023-06-22T13:39:00;4.10;;;3.70;;
66741;SDS011;53654;54.152;19.432;2023-06-22T13:41:28;4.40;;;3.30;;
66741;SDS011;53654;54.152;19.432;2023-06-22T13:43:56;4.70;;;3.20;;
66741;SDS011;53654;54.152;19.432;2023-06-22T13:46:25;4.50;;;3.40;;
66741;SDS011;53654;54.152;19.432;2023-06-22T13:48:53;4.70;;;3.30;;
66741;SDS011;53654;54.152;19.432;2023-06-22T13:51:23;4.50;;;3.40;;
66741;SDS011;53654;54.152;19.432;2023-06-22T13:53:52;3.90;;;3.40;;
66741;SDS011;53654;54.152;19.432;2023-06-22T13:56:20;3.90;;;3.20;;
66741;SDS011;53654;54.152;19.432;2023-06-22T13:58:49;3.70;;;3.30;;
66741;SDS011;53654;54.152;19.432;2023-06-22T14:01:17;4.70;;;3.30;;
66741;SDS011;53654;54.152;19.432;2023-06-22T14:03:47;4.40;;;3.20;;
66741;SDS011;53654;54.152;19.432;2023-06-22T14:06:16;5.70;;;3.60;;
66741;SDS011;53654;54.152;19.432;2023-06-22T14:08:44;4.00;;;2.90;;
66741;SDS011;53654;54.152;19.432;2023-06-22T14:11:12;4.10;;;3.40;;
66741;SDS011;53654;54.152;19.432;2023-06-22T14:13:41;3.50;;;3.20;;
66741;SDS011;53654;54.152;19.432;2023-06-22T14:16:10;4.00;;;3.30;;
66741;SDS011;53654;54.152;19.432;2023-06-22T14:18:39;4.10;;;3.70;;
66741;SDS011;53654;54.152;19.432;2023-06-22T14:21:07;4.30;;;3.20;;
66741;SDS011;53654;54.152;19.432;2023-06-22T14:23:35;5.30;;;3.50;;
66741;SDS011;53654;54.152;19.432;2023-06-22T14:26:05;3.70;;;3.20;;
66741;SDS011;53654;54.152;19.432;2023-06-22T14:28:33;3.70;;;3.20;;
66741;SDS011;53654;54.152;19.432;2023-06-22T14:31:02;3.40;;;3.00;;
66741;SDS011;53654;54.152;19.432;2023-06-22T14:33:30;4.50;;;3.30;;
66741;SDS011;53654;54.152;19.432;2023-06-22T14:35:58;3.80;;;3.30;;
66741;SDS011;53654;54.152;19.432;2023-06-22T14:38:27;4.50;;;3.10;;
66741;SDS011;53654;54.152;19.432;2023-06-22T14:40:55;4.20;;;2.90;;